createdAt,value
2022-11-03T00:01:37.470Z,101591.88
2022-11-03T00:04:06.035Z,101589.41
2022-11-03T00:06:33.877Z,101591.56
2022-11-03T00:09:04.617Z,101600.03
2022-11-03T00:11:33.512Z,101586.16
2022-11-03T00:14:01.543Z,101597.88
2022-11-03T00:16:29.583Z,101592.16
2022-11-03T00:18:57.283Z,101579.97
2022-11-03T00:21:25.224Z,101586.44
2022-11-03T00:23:52.937Z,101594.72
2022-11-03T00:26:23.021Z,101595.81
2022-11-03T00:28:52.277Z,101584.03
2022-11-03T00:31:21.606Z,101587.84
2022-11-03T00:33:49.845Z,101583.66
2022-11-03T00:36:19.627Z,101590.44
2022-11-03T00:38:47.577Z,101586.06
2022-11-03T00:41:15.691Z,101577.25
2022-11-03T00:43:44.816Z,101576.94
2022-11-03T00:46:12.528Z,101569.84
2022-11-03T00:48:40.486Z,101576.06
2022-11-03T00:51:10.169Z,101572.00
2022-11-03T00:53:39.784Z,101558.66
2022-11-03T00:56:08.515Z,101559.25
2022-11-03T00:58:36.238Z,101552.56
2022-11-03T01:01:08.554Z,101556.75
2022-11-03T01:03:38.276Z,101560.56
2022-11-03T01:06:24.777Z,101560.28
2022-11-03T01:08:52.769Z,101556.50
2022-11-03T01:11:40.389Z,101554.00
2022-11-03T01:14:08.226Z,101554.56
2022-11-03T01:16:37.267Z,101552.44
2022-11-03T01:19:05.102Z,101546.75
2022-11-03T01:21:32.835Z,101550.25
2022-11-03T01:24:01.765Z,101552.19
2022-11-03T01:26:29.511Z,101545.06
2022-11-03T01:28:57.404Z,101544.94
2022-11-03T01:31:26.242Z,101546.63
2022-11-03T01:33:56.534Z,101536.22
2022-11-03T01:36:24.600Z,101543.88
2022-11-03T01:38:52.418Z,101542.03
2022-11-03T01:41:24.984Z,101543.09
2022-11-03T01:44:25.540Z,101549.06
2022-11-03T01:46:55.679Z,101542.63
2022-11-03T01:49:27.190Z,101541.97
2022-11-03T01:51:58.012Z,101556.75
2022-11-03T01:54:27.537Z,101543.56
2022-11-03T01:56:55.785Z,101544.91
2022-11-03T01:59:25.245Z,101549.84
2022-11-03T02:01:53.226Z,101556.38
2022-11-03T02:04:26.099Z,101549.88
2022-11-03T02:06:56.210Z,101542.78
2022-11-03T02:09:23.907Z,101543.94
2022-11-03T02:12:10.269Z,101529.00
2022-11-03T02:14:41.317Z,101538.72
2022-11-03T02:17:11.039Z,101537.91
2022-11-03T02:19:42.625Z,101532.03
2022-11-03T02:22:35.872Z,101521.63
2022-11-03T02:25:10.293Z,101513.56
2022-11-03T02:27:39.407Z,101506.84
2022-11-03T02:30:08.203Z,101510.53
2022-11-03T02:32:41.774Z,101506.94
2022-11-03T02:35:13.805Z,101506.19
2022-11-03T02:37:44.632Z,101501.63
2022-11-03T02:40:14.985Z,101495.41
2022-11-03T02:42:47.756Z,101507.56
2022-11-03T02:45:18.077Z,101504.16
2022-11-03T02:47:46.534Z,101497.38
2022-11-03T02:50:14.289Z,101501.69
2022-11-03T02:52:43.594Z,101498.81
2022-11-03T02:55:15.564Z,101492.19
2022-11-03T02:57:50.322Z,101489.03
2022-11-03T03:00:18.606Z,101488.19
2022-11-03T03:02:53.588Z,101483.91
2022-11-03T03:05:26.414Z,101475.81
2022-11-03T03:07:59.032Z,101472.88
2022-11-03T03:10:27.863Z,101477.56
2022-11-03T03:12:58.639Z,101469.22
2022-11-03T03:15:35.232Z,101463.59
2022-11-03T03:18:12.154Z,101457.91
2022-11-03T03:20:43.248Z,101470.69
2022-11-03T03:23:16.653Z,101470.16
2022-11-03T03:25:48.070Z,101465.78
2022-11-03T03:28:20.548Z,101459.22
2022-11-03T03:30:49.506Z,101465.88
2022-11-03T03:33:19.030Z,101469.75
2022-11-03T03:35:49.446Z,101475.91
2022-11-03T03:38:20.155Z,101459.38
2022-11-03T03:40:51.224Z,101453.94
2022-11-03T03:43:21.600Z,101454.50
2022-11-03T03:45:51.233Z,101452.50
2022-11-03T03:48:19.295Z,101451.31
2022-11-03T03:50:48.057Z,101451.69
2022-11-03T03:53:17.007Z,101454.56
2022-11-03T03:55:46.987Z,101451.09
2022-11-03T03:58:15.723Z,101450.91
2022-11-03T04:00:45.466Z,101455.06
2022-11-03T04:03:16.931Z,101456.91
2022-11-03T04:05:44.890Z,101452.50
2022-11-03T04:08:12.998Z,101453.25
2022-11-03T04:10:40.996Z,101444.59
2022-11-03T04:13:27.337Z,101448.13
2022-11-03T04:16:14.203Z,101447.56
2022-11-03T04:18:59.270Z,101446.03
2022-11-03T04:21:44.612Z,101444.81
2022-11-03T04:24:12.307Z,101446.72
2022-11-03T04:26:40.029Z,101441.47
2022-11-03T04:29:10.585Z,101448.88
2022-11-03T04:31:40.073Z,101444.00
2022-11-03T04:34:12.649Z,101434.66
2022-11-03T04:36:40.573Z,101423.13
2022-11-03T04:39:16.974Z,101419.66
2022-11-03T04:41:44.877Z,101413.41
2022-11-03T04:44:15.579Z,101427.06
2022-11-03T04:46:45.136Z,101413.28
2022-11-03T04:49:16.007Z,101413.84
2022-11-03T04:51:44.070Z,101420.84
2022-11-03T04:54:15.220Z,101420.78
2022-11-03T04:56:42.971Z,101418.25
2022-11-03T04:59:12.906Z,101413.25
2022-11-03T05:01:40.721Z,101413.50
2022-11-03T05:04:13.580Z,101405.47
2022-11-03T05:06:41.663Z,101404.22
2022-11-03T05:09:14.127Z,101401.19
2022-11-03T05:11:44.020Z,101396.66
2022-11-03T05:14:16.743Z,101396.25
2022-11-03T05:16:44.701Z,101396.16
2022-11-03T05:19:16.578Z,101385.25
2022-11-03T05:21:44.265Z,101389.97
2022-11-03T05:26:43.949Z,101381.81
2022-11-03T05:29:14.538Z,101374.09
2022-11-03T05:31:43.248Z,101373.91
2022-11-03T05:34:27.518Z,101365.81
2022-11-03T05:36:55.262Z,101365.66
2022-11-03T05:39:31.550Z,101362.97
2022-11-03T05:42:00.459Z,101364.56
2022-11-03T05:44:33.483Z,101356.16
2022-11-03T05:47:04.562Z,101360.78
2022-11-03T05:49:36.456Z,101352.31
2022-11-03T05:52:04.419Z,101354.19
2022-11-03T05:54:33.595Z,101357.44
2022-11-03T05:57:02.374Z,101354.84
2022-11-03T05:59:30.719Z,101356.72
2022-11-03T06:02:01.108Z,101351.38
2022-11-03T06:04:30.491Z,101354.47
2022-11-03T06:07:02.422Z,101360.28
2022-11-03T06:09:30.518Z,101348.84
2022-11-03T06:12:01.015Z,101344.47
2022-11-03T06:14:30.539Z,101360.19
2022-11-03T06:16:59.652Z,101351.81
2022-11-03T06:19:30.039Z,101361.28
2022-11-03T06:22:01.833Z,101353.50
2022-11-03T06:24:31.715Z,101360.47
2022-11-03T06:26:59.586Z,101354.59
2022-11-03T06:29:27.364Z,101368.88
2022-11-03T06:31:58.002Z,101365.38
2022-11-03T06:34:34.526Z,101362.34
2022-11-03T06:37:12.648Z,101361.28
2022-11-03T06:39:41.552Z,101367.13
2022-11-03T06:42:13.300Z,101360.94
2022-11-03T06:44:43.052Z,101358.91
2022-11-03T06:47:20.950Z,101362.56
2022-11-03T06:49:48.869Z,101364.78
2022-11-03T06:52:27.281Z,101357.00
2022-11-03T06:54:56.928Z,101353.94
2022-11-03T06:57:24.655Z,101342.91
2022-11-03T07:00:06.689Z,101344.53
2022-11-03T07:02:57.125Z,101341.09
2022-11-03T07:05:26.556Z,101337.16
2022-11-03T07:07:58.190Z,101325.44
2022-11-03T07:10:27.459Z,101331.47
2022-11-03T07:12:56.523Z,101327.38
2022-11-03T07:15:28.584Z,101326.03
2022-11-03T07:17:56.323Z,101333.81
2022-11-03T07:20:24.270Z,101331.13
2022-11-03T07:22:52.954Z,101340.66
2022-11-03T07:25:22.886Z,101340.34
2022-11-03T07:27:52.083Z,101342.63
2022-11-03T07:30:22.597Z,101339.06
2022-11-03T07:32:53.361Z,101339.91
2022-11-03T07:35:41.628Z,101337.13
2022-11-03T07:38:19.235Z,101337.22
2022-11-03T07:40:48.485Z,101337.59
2022-11-03T07:43:18.672Z,101339.44
2022-11-03T07:45:50.445Z,101333.53
2022-11-03T07:48:26.070Z,101333.88
2022-11-03T07:50:55.383Z,101332.97
2022-11-03T07:53:26.921Z,101331.72
2022-11-03T07:55:57.374Z,101336.22
2022-11-03T07:58:28.955Z,101319.69
2022-11-03T08:01:03.437Z,101314.31
2022-11-03T08:03:40.890Z,101310.81
2022-11-03T08:06:10.195Z,101304.34
2022-11-03T08:08:39.386Z,101308.44
2022-11-03T08:11:08.765Z,101305.91
2022-11-03T08:13:36.550Z,101302.44
2022-11-03T08:16:04.516Z,101303.16
2022-11-03T08:18:32.220Z,101294.47
2022-11-03T08:21:00.010Z,101289.81
2022-11-03T08:23:28.723Z,101285.91
2022-11-03T08:25:56.775Z,101283.75
2022-11-03T08:28:26.071Z,101279.75
2022-11-03T08:30:53.975Z,101281.84
2022-11-03T08:33:21.705Z,101275.34
2022-11-03T08:35:49.466Z,101274.09
2022-11-03T08:38:17.188Z,101263.25
2022-11-03T08:40:44.908Z,101268.97
2022-11-03T08:43:12.642Z,101258.44
2022-11-03T08:45:41.761Z,101252.09
2022-11-03T08:48:09.761Z,101243.56
2022-11-03T08:50:37.722Z,101247.81
2022-11-03T08:53:05.463Z,101240.25
2022-11-03T08:55:33.489Z,101240.03
2022-11-03T08:58:01.830Z,101238.91
2022-11-03T09:00:29.572Z,101233.81
2022-11-03T09:02:58.650Z,101229.94
2022-11-03T09:05:26.401Z,101216.78
2022-11-03T09:10:42.830Z,101218.94
2022-11-03T09:13:10.932Z,101222.31
2022-11-03T09:15:38.970Z,101219.81
2022-11-03T09:18:08.335Z,101222.09
2022-11-03T09:20:36.303Z,101211.69
2022-11-03T09:23:04.060Z,101203.03
2022-11-03T09:25:31.980Z,101208.63
2022-11-03T09:27:59.732Z,101201.72
2022-11-03T09:30:28.935Z,101195.63
2022-11-03T09:32:56.672Z,101192.75
2022-11-03T09:35:25.841Z,101189.81
2022-11-03T09:37:53.667Z,101184.16
2022-11-03T09:40:21.688Z,101168.16
2022-11-03T09:42:50.176Z,101173.06
2022-11-03T09:45:18.096Z,101167.38
2022-11-03T09:47:47.055Z,101162.97
2022-11-03T09:50:16.704Z,101153.09
2022-11-03T09:52:51.264Z,101158.88
2022-11-03T09:55:21.503Z,101154.59
2022-11-03T09:57:49.289Z,101149.09
2022-11-03T10:00:20.764Z,101149.56
2022-11-03T10:02:49.536Z,101135.19
2022-11-03T10:05:20.720Z,101139.03
2022-11-03T10:07:50.008Z,101134.59
2022-11-03T10:10:20.268Z,101134.78
2022-11-03T10:12:49.623Z,101133.31
2022-11-03T10:15:18.787Z,101123.31
2022-11-03T10:17:47.470Z,101119.53
2022-11-03T10:20:17.186Z,101115.28
2022-11-03T10:22:46.174Z,101110.22
2022-11-03T10:25:37.341Z,101099.31
2022-11-03T10:28:19.982Z,101092.56
2022-11-03T10:33:41.755Z,101092.63
2022-11-03T10:36:24.249Z,101084.34
2022-11-03T10:38:52.269Z,101085.03
2022-11-03T10:41:22.864Z,101084.22
2022-11-03T10:44:09.982Z,101078.16
2022-11-03T10:46:50.628Z,101076.16
2022-11-03T10:49:20.666Z,101067.91
2022-11-03T10:51:50.591Z,101073.63
2022-11-03T10:54:19.992Z,101060.56
2022-11-03T10:56:50.845Z,101056.22
2022-11-03T10:59:20.843Z,101055.91
2022-11-03T11:01:48.788Z,101054.16
2022-11-03T11:04:17.608Z,101045.94
2022-11-03T11:06:46.209Z,101043.03
2022-11-03T11:09:18.581Z,101041.66
2022-11-03T11:12:07.065Z,101037.31
2022-11-03T11:14:39.776Z,101034.78
2022-11-03T11:17:28.291Z,101032.69
2022-11-03T11:20:30.716Z,101021.72
2022-11-03T11:23:52.957Z,101019.66
2022-11-03T11:26:41.414Z,101011.03
2022-11-03T11:29:41.871Z,101006.16
2022-11-03T11:32:52.326Z,100994.63
2022-11-03T11:36:07.622Z,100995.19
2022-11-03T11:39:09.212Z,100992.41
2022-11-03T11:42:12.289Z,100988.66
2022-11-03T11:45:04.497Z,100981.69
2022-11-03T11:47:50.554Z,100980.31
2022-11-03T11:50:29.608Z,100974.03
2022-11-03T11:53:00.056Z,100969.22
2022-11-03T11:55:42.692Z,100965.00
2022-11-03T11:58:25.626Z,100964.22
2022-11-03T12:00:55.858Z,100951.16
2022-11-03T12:03:28.010Z,100951.00
2022-11-03T12:05:55.763Z,100949.31
2022-11-03T12:08:28.601Z,100951.53
2022-11-03T12:10:58.779Z,100942.91
2022-11-03T12:13:38.100Z,100935.22
2022-11-03T12:16:06.346Z,100930.09
2022-11-03T12:18:39.905Z,100930.31
2022-11-03T12:21:10.019Z,100928.81
2022-11-03T12:23:41.172Z,100932.19
2022-11-03T12:26:40.204Z,100928.88
2022-11-03T12:29:08.017Z,100916.22
2022-11-03T12:31:37.069Z,100920.31
2022-11-03T12:34:05.010Z,100918.31
2022-11-03T12:36:32.758Z,100915.28
2022-11-03T12:39:00.497Z,100900.31
2022-11-03T12:41:29.733Z,100902.44
2022-11-03T12:43:57.548Z,100895.31
2022-11-03T12:46:25.331Z,100896.09
2022-11-03T12:48:53.096Z,100893.94
2022-11-03T12:51:22.072Z,100884.19
2022-11-03T12:53:49.981Z,100890.72
2022-11-03T12:56:18.897Z,100886.22
2022-11-03T12:58:48.096Z,100887.75
2022-11-03T13:01:16.273Z,100878.06
2022-11-03T13:03:44.351Z,100873.19
2022-11-03T13:06:14.593Z,100866.69
2022-11-03T13:08:42.663Z,100871.28
2022-11-03T13:11:24.309Z,100860.28
2022-11-03T13:13:53.577Z,100855.88
2022-11-03T13:16:21.585Z,100843.16
2022-11-03T13:18:49.585Z,100834.97
2022-11-03T13:21:17.809Z,100839.56
2022-11-03T13:23:46.222Z,100827.69
2022-11-03T13:26:13.977Z,100824.06
2022-11-03T13:28:41.952Z,100818.00
2022-11-03T13:31:11.205Z,100815.69
2022-11-03T13:33:38.966Z,100812.94
2022-11-03T13:36:07.354Z,100810.34
2022-11-03T13:38:35.169Z,100801.66
2022-11-03T13:41:08.451Z,100800.94
2022-11-03T13:43:36.976Z,100788.16
2022-11-03T13:46:05.210Z,100782.00
2022-11-03T13:51:22.302Z,100771.53
2022-11-03T13:59:26.120Z,100751.72
2022-11-03T14:04:44.309Z,100745.81
2022-11-03T14:07:12.505Z,100746.28
2022-11-03T14:09:40.265Z,100750.59
2022-11-03T14:12:25.676Z,100748.38
2022-11-03T14:14:53.403Z,100745.94
2022-11-03T14:17:21.110Z,100748.91
2022-11-03T14:19:52.703Z,100743.81
2022-11-03T14:22:23.912Z,100735.00
2022-11-03T14:24:54.485Z,100730.38
2022-11-03T14:27:22.278Z,100726.72
2022-11-03T14:29:50.413Z,100717.78
2022-11-03T14:32:18.735Z,100718.63
2022-11-03T14:34:46.976Z,100715.09
2022-11-03T14:37:16.602Z,100712.00
2022-11-03T14:39:44.395Z,100710.00
2022-11-03T14:42:15.326Z,100705.09
2022-11-03T14:44:44.505Z,100699.66
2022-11-03T14:47:13.416Z,100682.81
2022-11-03T14:49:41.209Z,100682.41
2022-11-03T14:52:08.995Z,100681.38
2022-11-03T14:54:38.071Z,100671.25
2022-11-03T14:57:06.212Z,100656.09
2022-11-03T14:59:34.394Z,100663.00
2022-11-03T15:02:03.419Z,100658.13
2022-11-03T15:04:31.327Z,100657.94
2022-11-03T15:06:59.124Z,100651.59
2022-11-03T15:09:26.911Z,100643.06
2022-11-03T15:11:56.020Z,100633.69
2022-11-03T15:14:23.781Z,100631.91
2022-11-03T15:16:51.495Z,100635.00
2022-11-03T15:19:19.415Z,100633.91
2022-11-03T15:21:47.183Z,100622.06
2022-11-03T15:27:03.929Z,100616.13
2022-11-03T15:29:31.645Z,100618.00
2022-11-03T15:31:59.415Z,100613.59
2022-11-03T15:34:27.107Z,100614.72
2022-11-03T15:36:54.837Z,100611.56
2022-11-03T15:39:22.528Z,100604.59
2022-11-03T15:41:50.319Z,100607.50
2022-11-03T15:44:19.355Z,100597.88
2022-11-03T15:46:47.074Z,100594.94
2022-11-03T15:49:14.898Z,100590.16
2022-11-03T15:51:42.756Z,100584.19
2022-11-03T15:54:10.618Z,100581.19
2022-11-03T15:56:38.336Z,100570.94
2022-11-03T15:59:06.074Z,100565.09
2022-11-03T16:01:35.639Z,100563.38
2022-11-03T16:04:03.486Z,100549.09
2022-11-03T16:07:01.691Z,100545.03
2022-11-03T16:09:20.534Z,100541.31
2022-11-03T16:11:48.265Z,100537.59
2022-11-03T16:14:16.098Z,100531.53
2022-11-03T16:16:45.238Z,100523.97
2022-11-03T16:19:12.980Z,100514.56
2022-11-03T16:21:40.732Z,100515.16
2022-11-03T16:24:09.107Z,100507.84
2022-11-03T16:26:36.871Z,100509.56
2022-11-03T16:29:04.573Z,100505.34
2022-11-03T16:31:32.641Z,100507.72
2022-11-03T16:34:01.721Z,100500.44
2022-11-03T16:36:29.435Z,100499.19
2022-11-03T16:38:57.163Z,100495.28
2022-11-03T16:41:24.944Z,100494.09
2022-11-03T16:43:52.651Z,100496.47
2022-11-03T16:46:20.446Z,100485.31
2022-11-03T16:48:48.222Z,100478.69
2022-11-03T16:51:17.432Z,100472.66
2022-11-03T16:53:45.364Z,100472.69
2022-11-03T16:56:13.761Z,100466.22
2022-11-03T16:58:41.548Z,100462.50
2022-11-03T17:01:09.326Z,100467.19
2022-11-03T17:03:37.074Z,100462.06
2022-11-03T17:06:04.963Z,100452.13
2022-11-03T17:11:35.934Z,100453.50
2022-11-03T17:14:07.597Z,100438.38
2022-11-03T17:16:35.639Z,100429.69
2022-11-03T17:19:03.563Z,100422.63
2022-11-03T17:21:31.832Z,100433.53
2022-11-03T17:24:01.030Z,100426.22
2022-11-03T17:26:39.021Z,100419.91
2022-11-03T17:29:13.206Z,100429.59
2022-11-03T17:31:40.989Z,100426.50
2022-11-03T17:34:10.131Z,100423.06
2022-11-03T17:36:37.854Z,100419.38
2022-11-03T17:39:06.934Z,100409.50
2022-11-03T17:41:36.847Z,100407.41
2022-11-03T17:44:09.746Z,100414.16
2022-11-03T17:46:37.475Z,100410.69
2022-11-03T17:49:05.152Z,100395.66
2022-11-03T17:51:33.461Z,100388.25
2022-11-03T17:54:03.863Z,100391.06
2022-11-03T17:56:33.168Z,100382.03
2022-11-03T17:59:01.444Z,100378.69
2022-11-03T18:01:29.315Z,100378.69
2022-11-03T18:03:57.128Z,100374.66
2022-11-03T18:06:25.410Z,100363.53
2022-11-03T18:08:53.130Z,100356.63
2022-11-03T18:11:42.049Z,100347.00
2022-11-03T18:14:11.175Z,100349.91
2022-11-03T18:16:38.933Z,100342.47
2022-11-03T18:19:07.422Z,100341.84
2022-11-03T18:21:35.438Z,100333.75
2022-11-03T18:24:03.308Z,100325.63
2022-11-03T18:26:31.006Z,100305.84
2022-11-03T18:28:58.779Z,100291.34
2022-11-03T18:31:33.907Z,100285.44
2022-11-03T18:34:02.863Z,100287.88
2022-11-03T18:36:31.131Z,100273.44
2022-11-03T18:38:59.630Z,100261.88
2022-11-03T18:41:40.432Z,100252.00
2022-11-03T18:44:13.514Z,100251.28
2022-11-03T18:46:42.666Z,100244.75
2022-11-03T18:49:10.448Z,100242.25
2022-11-03T18:51:38.528Z,100235.72
2022-11-03T18:54:06.482Z,100224.63
2022-11-03T18:56:37.337Z,100208.28
2022-11-03T18:59:06.355Z,100202.09
2022-11-03T19:01:34.178Z,100203.75
2022-11-03T19:04:03.436Z,100200.09
2022-11-03T19:06:31.094Z,100194.19
2022-11-03T19:09:00.316Z,100194.78
2022-11-03T19:11:28.422Z,100191.56
2022-11-03T19:13:56.210Z,100192.66
2022-11-03T19:16:25.276Z,100199.28
2022-11-03T19:18:53.345Z,100193.81
2022-11-03T19:21:24.324Z,100186.16
2022-11-03T19:23:57.981Z,100178.09
2022-11-03T19:26:29.278Z,100179.53
2022-11-03T19:29:00.512Z,100186.44
2022-11-03T19:31:32.147Z,100170.53
2022-11-03T19:34:00.102Z,100162.84
2022-11-03T19:36:31.297Z,100158.09
2022-11-03T19:38:59.224Z,100159.66
2022-11-03T19:41:56.337Z,100153.47
2022-11-03T19:44:24.170Z,100157.00
2022-11-03T19:46:53.548Z,100137.19
2022-11-03T19:49:21.309Z,100133.34
2022-11-03T19:51:50.437Z,100123.94
2022-11-03T19:54:20.761Z,100123.84
2022-11-03T19:56:48.957Z,100126.47
2022-11-03T19:59:17.671Z,100119.63
2022-11-03T20:01:45.726Z,100108.47
2022-11-03T20:04:13.489Z,100095.34
2022-11-03T20:06:41.747Z,100091.84
2022-11-03T20:09:16.555Z,100104.47
2022-11-03T20:11:44.372Z,100093.88
2022-11-03T20:14:17.872Z,100093.97
2022-11-03T20:16:45.601Z,100099.53
2022-11-03T20:19:13.320Z,100103.69
2022-11-03T20:21:41.684Z,100100.28
2022-11-03T20:24:11.309Z,100096.91
2022-11-03T20:26:39.060Z,100098.59
2022-11-03T20:29:11.971Z,100091.03
2022-11-03T20:31:39.729Z,100086.50
2022-11-03T20:34:07.489Z,100082.09
2022-11-03T20:36:35.174Z,100078.31
2022-11-03T20:39:04.359Z,100080.50
2022-11-03T20:41:33.851Z,100079.03
2022-11-03T20:44:01.827Z,100078.69
2022-11-03T20:46:31.004Z,100081.91
2022-11-03T20:48:58.686Z,100079.72
2022-11-03T20:51:28.123Z,100073.91
2022-11-03T20:53:56.703Z,100072.13
2022-11-03T20:56:26.300Z,100060.91
2022-11-03T20:58:55.566Z,100062.78
2022-11-03T21:01:25.834Z,100058.66
2022-11-03T21:03:59.272Z,100062.25
2022-11-03T21:06:28.520Z,100067.25
2022-11-03T21:08:56.495Z,100068.00
2022-11-03T21:11:27.380Z,100061.00
2022-11-03T21:13:57.911Z,100060.44
2022-11-03T21:16:47.278Z,100056.38
2022-11-03T21:19:36.678Z,100053.75
2022-11-03T21:22:30.798Z,100049.84
2022-11-03T21:25:00.907Z,100060.53
2022-11-03T21:27:28.630Z,100052.31
2022-11-03T21:30:00.053Z,100053.09
2022-11-03T21:32:28.483Z,100034.53
2022-11-03T21:34:56.379Z,100037.81
2022-11-03T21:37:24.234Z,100036.72
2022-11-03T21:39:52.045Z,100022.75
2022-11-03T21:42:37.456Z,100026.53
2022-11-03T21:45:07.760Z,100014.72
2022-11-03T21:47:35.498Z,100011.81
2022-11-03T21:50:02.722Z,100013.53
2022-11-03T21:52:33.229Z,100018.19
2022-11-03T21:55:01.807Z,100012.38
2022-11-03T21:57:30.013Z,100014.50
2022-11-03T21:59:59.138Z,100007.13
2022-11-03T22:02:30.387Z,100004.13
2022-11-03T22:04:58.587Z,99994.50
2022-11-03T22:07:26.367Z,100004.50
2022-11-03T22:09:54.102Z,100007.06
2022-11-03T22:12:21.788Z,100005.63
2022-11-03T22:15:06.951Z,100011.72
2022-11-03T22:17:36.035Z,100009.50
2022-11-03T22:20:21.564Z,100011.41
2022-11-03T22:23:15.370Z,100008.22
2022-11-03T22:26:00.652Z,100005.25
2022-11-03T22:28:28.456Z,99998.97
2022-11-03T22:31:13.649Z,99995.44
2022-11-03T22:33:56.656Z,99983.78
2022-11-03T22:36:24.486Z,99985.63
2022-11-03T22:39:06.435Z,99980.81
2022-11-03T22:41:51.889Z,99984.56
2022-11-03T22:44:37.265Z,99984.81
2022-11-03T22:47:08.096Z,99990.59
2022-11-03T22:49:37.677Z,99981.94
2022-11-03T22:52:05.683Z,99972.16
2022-11-03T22:54:32.430Z,99966.25
2022-11-03T22:57:00.115Z,99963.13
2022-11-03T22:59:29.273Z,99957.53
2022-11-03T23:01:57.085Z,99954.25
2022-11-03T23:04:24.898Z,99958.69
2022-11-03T23:06:53.918Z,99967.50
2022-11-03T23:09:21.632Z,99967.19
2022-11-03T23:11:49.385Z,99968.34
2022-11-03T23:14:17.216Z,99963.75
2022-11-03T23:16:45.910Z,99951.75
2022-11-03T23:19:33.042Z,99954.72
2022-11-03T23:22:02.399Z,99958.66
2022-11-03T23:24:47.793Z,99953.50
2022-11-03T23:27:15.585Z,99944.88
2022-11-03T23:29:43.300Z,99945.72
2022-11-03T23:32:11.019Z,99939.28
2022-11-03T23:34:38.736Z,99942.28
2022-11-03T23:37:07.842Z,99934.09
2022-11-03T23:39:35.673Z,99926.00
2022-11-03T23:42:03.403Z,99930.59
2022-11-03T23:44:51.100Z,99933.53
2022-11-03T23:47:36.525Z,99929.31
2022-11-03T23:50:04.438Z,99934.59
2022-11-03T23:52:33.696Z,99932.44
2022-11-03T23:55:01.646Z,99935.81
2022-11-03T23:57:47.900Z,99928.53
